sensor_id;sensor_type;location;lat;lon;timestamp;P1;durP1;ratioP1;P2;durP2;ratioP2
68803;SDS011;55787;52.678;13.314;2023-03-25T00:01:22;6.72;;;1.20;;
68803;SDS011;55787;52.678;13.314;2023-03-25T00:03:52;5.55;;;0.93;;
68803;SDS011;55787;52.678;13.314;2023-03-25T00:06:18;7.00;;;1.30;;
68803;SDS011;55787;52.678;13.314;2023-03-25T00:08:45;9.25;;;1.17;;
68803;SDS011;55787;52.678;13.314;2023-03-25T00:11:11;8.02;;;1.20;;
68803;SDS011;55787;52.678;13.314;2023-03-25T00:13:38;6.28;;;1.30;;
68803;SDS011;55787;52.678;13.314;2023-03-25T00:16:05;7.95;;;1.33;;
68803;SDS011;55787;52.678;13.314;2023-03-25T00:18:33;7.50;;;1.33;;
68803;SDS011;55787;52.678;13.314;2023-03-25T00:21:00;6.90;;;1.27;;
68803;SDS011;55787;52.678;13.314;2023-03-25T00:23:28;6.40;;;1.20;;
68803;SDS011;55787;52.678;13.314;2023-03-25T00:25:56;6.30;;;1.10;;
68803;SDS011;55787;52.678;13.314;2023-03-25T00:28:26;7.30;;;1.20;;
68803;SDS011;55787;52.678;13.314;2023-03-25T00:30:59;6.97;;;1.10;;
68803;SDS011;55787;52.678;13.314;2023-03-25T00:33:27;5.77;;;1.10;;
68803;SDS011;55787;52.678;13.314;2023-03-25T00:35:55;5.88;;;1.17;;
68803;SDS011;55787;52.678;13.314;2023-03-25T00:38:25;6.00;;;1.10;;
68803;SDS011;55787;52.678;13.314;2023-03-25T00:41:19;6.72;;;1.00;;
68803;SDS011;55787;52.678;13.314;2023-03-25T00:43:52;6.97;;;1.05;;
68803;SDS011;55787;52.678;13.314;2023-03-25T00:46:21;6.33;;;0.97;;
68803;SDS011;55787;52.678;13.314;2023-03-25T00:48:49;6.43;;;0.85;;
68803;SDS011;55787;52.678;13.314;2023-03-25T00:51:15;6.63;;;1.00;;
68803;SDS011;55787;52.678;13.314;2023-03-25T00:53:47;7.90;;;1.00;;
68803;SDS011;55787;52.678;13.314;2023-03-25T00:56:18;6.28;;;0.90;;
68803;SDS011;55787;52.678;13.314;2023-03-25T00:58:46;6.43;;;0.90;;
68803;SDS011;55787;52.678;13.314;2023-03-25T01:01:13;6.53;;;1.20;;
68803;SDS011;55787;52.678;13.314;2023-03-25T01:03:43;6.60;;;1.10;;
68803;SDS011;55787;52.678;13.314;2023-03-25T01:06:10;5.90;;;1.00;;
68803;SDS011;55787;52.678;13.314;2023-03-25T01:08:39;5.65;;;1.10;;
68803;SDS011;55787;52.678;13.314;2023-03-25T01:11:15;6.93;;;1.20;;
68803;SDS011;55787;52.678;13.314;2023-03-25T01:13:44;6.18;;;1.00;;
68803;SDS011;55787;52.678;13.314;2023-03-25T01:16:11;7.50;;;1.30;;
68803;SDS011;55787;52.678;13.314;2023-03-25T01:18:38;5.50;;;0.90;;
68803;SDS011;55787;52.678;13.314;2023-03-25T01:21:04;5.60;;;1.10;;
68803;SDS011;55787;52.678;13.314;2023-03-25T01:23:32;6.70;;;1.02;;
68803;SDS011;55787;52.678;13.314;2023-03-25T01:25:59;7.00;;;1.23;;
68803;SDS011;55787;52.678;13.314;2023-03-25T01:28:26;7.38;;;1.35;;
68803;SDS011;55787;52.678;13.314;2023-03-25T01:31:00;7.55;;;1.23;;
68803;SDS011;55787;52.678;13.314;2023-03-25T01:33:27;6.50;;;1.00;;
68803;SDS011;55787;52.678;13.314;2023-03-25T01:35:54;5.57;;;1.10;;
68803;SDS011;55787;52.678;13.314;2023-03-25T01:38:21;6.13;;;0.85;;
68803;SDS011;55787;52.678;13.314;2023-03-25T01:40:49;6.07;;;1.20;;
68803;SDS011;55787;52.678;13.314;2023-03-25T01:43:17;5.45;;;0.95;;
68803;SDS011;55787;52.678;13.314;2023-03-25T01:45:44;6.95;;;1.00;;
68803;SDS011;55787;52.678;13.314;2023-03-25T01:50:42;5.93;;;0.93;;
68803;SDS011;55787;52.678;13.314;2023-03-25T01:53:16;6.82;;;0.88;;
68803;SDS011;55787;52.678;13.314;2023-03-25T01:55:43;6.10;;;0.98;;
68803;SDS011;55787;52.678;13.314;2023-03-25T01:58:11;6.28;;;1.10;;
68803;SDS011;55787;52.678;13.314;2023-03-25T02:00:41;5.27;;;0.90;;
68803;SDS011;55787;52.678;13.314;2023-03-25T02:03:10;6.60;;;0.88;;
68803;SDS011;55787;52.678;13.314;2023-03-25T02:08:38;6.60;;;0.90;;
68803;SDS011;55787;52.678;13.314;2023-03-25T02:11:09;5.68;;;0.80;;
68803;SDS011;55787;52.678;13.314;2023-03-25T02:13:37;6.30;;;0.82;;
68803;SDS011;55787;52.678;13.314;2023-03-25T02:16:19;5.82;;;0.93;;
68803;SDS011;55787;52.678;13.314;2023-03-25T02:19:01;5.15;;;0.60;;
68803;SDS011;55787;52.678;13.314;2023-03-25T02:42:19;7.20;;;0.73;;
68803;SDS011;55787;52.678;13.314;2023-03-25T02:45:14;5.00;;;0.70;;
68803;SDS011;55787;52.678;13.314;2023-03-25T02:47:48;5.00;;;0.65;;
68803;SDS011;55787;52.678;13.314;2023-03-25T02:50:20;5.20;;;0.70;;
68803;SDS011;55787;52.678;13.314;2023-03-25T02:52:56;5.57;;;0.50;;
68803;SDS011;55787;52.678;13.314;2023-03-25T02:55:26;5.85;;;0.82;;
68803;SDS011;55787;52.678;13.314;2023-03-25T02:57:58;4.47;;;0.60;;
68803;SDS011;55787;52.678;13.314;2023-03-25T03:00:29;5.30;;;0.60;;
68803;SDS011;55787;52.678;13.314;2023-03-25T03:02:58;6.18;;;0.80;;
68803;SDS011;55787;52.678;13.314;2023-03-25T03:05:34;6.22;;;0.70;;
68803;SDS011;55787;52.678;13.314;2023-03-25T03:15:59;5.68;;;0.60;;
68803;SDS011;55787;52.678;13.314;2023-03-25T03:21:14;5.30;;;0.50;;
68803;SDS011;55787;52.678;13.314;2023-03-25T03:23:58;5.80;;;0.57;;
68803;SDS011;55787;52.678;13.314;2023-03-25T03:26:38;5.40;;;0.70;;
68803;SDS011;55787;52.678;13.314;2023-03-25T03:29:16;4.43;;;0.50;;
68803;SDS011;55787;52.678;13.314;2023-03-25T03:31:51;6.20;;;0.90;;
68803;SDS011;55787;52.678;13.314;2023-03-25T03:37:19;3.50;;;0.30;;
68803;SDS011;55787;52.678;13.314;2023-03-25T03:39:50;8.02;;;0.70;;
68803;SDS011;55787;52.678;13.314;2023-03-25T03:42:22;5.55;;;0.63;;
68803;SDS011;55787;52.678;13.314;2023-03-25T03:44:57;5.22;;;0.70;;
68803;SDS011;55787;52.678;13.314;2023-03-25T03:47:30;6.23;;;0.80;;
68803;SDS011;55787;52.678;13.314;2023-03-25T03:50:04;5.15;;;0.50;;
68803;SDS011;55787;52.678;13.314;2023-03-25T03:52:38;5.03;;;0.60;;
68803;SDS011;55787;52.678;13.314;2023-03-25T03:55:11;7.07;;;0.68;;
68803;SDS011;55787;52.678;13.314;2023-03-25T03:57:53;5.30;;;0.52;;
68803;SDS011;55787;52.678;13.314;2023-03-25T04:00:31;4.70;;;0.45;;
68803;SDS011;55787;52.678;13.314;2023-03-25T04:05:33;5.28;;;0.50;;
68803;SDS011;55787;52.678;13.314;2023-03-25T04:08:05;5.15;;;0.77;;
68803;SDS011;55787;52.678;13.314;2023-03-25T04:10:57;4.78;;;0.60;;
68803;SDS011;55787;52.678;13.314;2023-03-25T04:13:33;6.80;;;0.60;;
68803;SDS011;55787;52.678;13.314;2023-03-25T04:16:02;7.15;;;0.80;;
68803;SDS011;55787;52.678;13.314;2023-03-25T04:18:28;5.03;;;0.55;;
68803;SDS011;55787;52.678;13.314;2023-03-25T04:20:59;5.93;;;0.75;;
68803;SDS011;55787;52.678;13.314;2023-03-25T04:23:26;5.93;;;0.70;;
68803;SDS011;55787;52.678;13.314;2023-03-25T04:25:57;5.97;;;0.60;;
68803;SDS011;55787;52.678;13.314;2023-03-25T04:28:28;5.68;;;0.70;;
68803;SDS011;55787;52.678;13.314;2023-03-25T04:30:55;6.15;;;0.75;;
68803;SDS011;55787;52.678;13.314;2023-03-25T04:33:23;6.07;;;0.60;;
68803;SDS011;55787;52.678;13.314;2023-03-25T04:35:50;5.95;;;0.50;;
68803;SDS011;55787;52.678;13.314;2023-03-25T04:38:18;5.15;;;0.70;;
68803;SDS011;55787;52.678;13.314;2023-03-25T04:40:45;8.27;;;0.70;;
68803;SDS011;55787;52.678;13.314;2023-03-25T04:43:13;5.47;;;0.52;;
68803;SDS011;55787;52.678;13.314;2023-03-25T04:45:40;5.47;;;0.50;;
68803;SDS011;55787;52.678;13.314;2023-03-25T04:48:18;5.45;;;0.60;;
68803;SDS011;55787;52.678;13.314;2023-03-25T04:50:48;6.15;;;0.80;;
68803;SDS011;55787;52.678;13.314;2023-03-25T04:53:17;5.82;;;0.70;;
68803;SDS011;55787;52.678;13.314;2023-03-25T04:55:43;5.72;;;0.70;;
68803;SDS011;55787;52.678;13.314;2023-03-25T04:58:13;7.05;;;0.60;;
68803;SDS011;55787;52.678;13.314;2023-03-25T05:00:41;6.32;;;0.68;;
68803;SDS011;55787;52.678;13.314;2023-03-25T05:03:10;4.72;;;0.50;;
68803;SDS011;55787;52.678;13.314;2023-03-25T05:05:37;8.70;;;1.17;;
68803;SDS011;55787;52.678;13.314;2023-03-25T05:08:04;5.53;;;0.60;;
68803;SDS011;55787;52.678;13.314;2023-03-25T05:10:30;4.78;;;0.40;;
68803;SDS011;55787;52.678;13.314;2023-03-25T05:12:58;5.57;;;0.57;;
68803;SDS011;55787;52.678;13.314;2023-03-25T05:15:25;6.78;;;0.60;;
68803;SDS011;55787;52.678;13.314;2023-03-25T05:17:53;5.55;;;0.65;;
68803;SDS011;55787;52.678;13.314;2023-03-25T05:20:20;5.75;;;0.60;;
68803;SDS011;55787;52.678;13.314;2023-03-25T05:22:47;5.28;;;0.52;;
68803;SDS011;55787;52.678;13.314;2023-03-25T05:25:14;7.70;;;0.85;;
68803;SDS011;55787;52.678;13.314;2023-03-25T05:27:41;7.40;;;0.73;;
68803;SDS011;55787;52.678;13.314;2023-03-25T05:30:08;4.18;;;0.50;;
68803;SDS011;55787;52.678;13.314;2023-03-25T05:32:35;5.85;;;0.68;;
68803;SDS011;55787;52.678;13.314;2023-03-25T05:35:02;5.78;;;0.70;;
68803;SDS011;55787;52.678;13.314;2023-03-25T05:37:29;6.53;;;0.70;;
68803;SDS011;55787;52.678;13.314;2023-03-25T05:39:56;6.10;;;0.60;;
68803;SDS011;55787;52.678;13.314;2023-03-25T05:42:23;5.97;;;0.50;;
68803;SDS011;55787;52.678;13.314;2023-03-25T05:44:53;5.90;;;0.80;;
68803;SDS011;55787;52.678;13.314;2023-03-25T05:47:20;5.53;;;0.50;;
68803;SDS011;55787;52.678;13.314;2023-03-25T05:49:49;4.47;;;0.50;;
68803;SDS011;55787;52.678;13.314;2023-03-25T05:52:17;5.15;;;0.63;;
68803;SDS011;55787;52.678;13.314;2023-03-25T05:54:45;4.85;;;0.30;;
68803;SDS011;55787;52.678;13.314;2023-03-25T05:57:15;5.05;;;0.40;;
68803;SDS011;55787;52.678;13.314;2023-03-25T05:59:42;5.97;;;0.40;;
68803;SDS011;55787;52.678;13.314;2023-03-25T06:02:11;6.70;;;0.70;;
68803;SDS011;55787;52.678;13.314;2023-03-25T06:04:39;6.30;;;0.70;;
68803;SDS011;55787;52.678;13.314;2023-03-25T06:07:12;6.22;;;0.50;;
68803;SDS011;55787;52.678;13.314;2023-03-25T06:09:45;5.32;;;0.60;;
68803;SDS011;55787;52.678;13.314;2023-03-25T06:12:14;6.15;;;0.50;;
68803;SDS011;55787;52.678;13.314;2023-03-25T06:14:43;3.75;;;0.35;;
68803;SDS011;55787;52.678;13.314;2023-03-25T06:17:14;6.13;;;0.40;;
68803;SDS011;55787;52.678;13.314;2023-03-25T06:19:41;3.72;;;0.30;;
68803;SDS011;55787;52.678;13.314;2023-03-25T06:22:08;3.83;;;0.47;;
68803;SDS011;55787;52.678;13.314;2023-03-25T06:24:37;4.10;;;0.40;;
68803;SDS011;55787;52.678;13.314;2023-03-25T06:27:05;8.45;;;0.68;;
68803;SDS011;55787;52.678;13.314;2023-03-25T06:29:34;5.05;;;0.50;;
68803;SDS011;55787;52.678;13.314;2023-03-25T06:32:04;4.93;;;0.40;;
68803;SDS011;55787;52.678;13.314;2023-03-25T06:34:31;5.63;;;0.50;;
68803;SDS011;55787;52.678;13.314;2023-03-25T06:36:59;4.63;;;0.38;;
68803;SDS011;55787;52.678;13.314;2023-03-25T06:39:26;4.18;;;0.38;;
68803;SDS011;55787;52.678;13.314;2023-03-25T06:41:57;4.47;;;0.40;;
68803;SDS011;55787;52.678;13.314;2023-03-25T06:44:25;4.07;;;0.40;;
68803;SDS011;55787;52.678;13.314;2023-03-25T06:46:52;5.63;;;0.50;;
68803;SDS011;55787;52.678;13.314;2023-03-25T06:49:19;4.47;;;0.40;;
68803;SDS011;55787;52.678;13.314;2023-03-25T06:51:46;4.15;;;0.40;;
68803;SDS011;55787;52.678;13.314;2023-03-25T06:54:13;3.67;;;0.30;;
68803;SDS011;55787;52.678;13.314;2023-03-25T06:56:40;4.00;;;0.40;;
68803;SDS011;55787;52.678;13.314;2023-03-25T06:59:07;5.00;;;0.40;;
68803;SDS011;55787;52.678;13.314;2023-03-25T07:01:33;4.95;;;0.40;;
68803;SDS011;55787;52.678;13.314;2023-03-25T07:04:00;3.90;;;0.30;;
68803;SDS011;55787;52.678;13.314;2023-03-25T07:06:26;4.43;;;0.50;;
68803;SDS011;55787;52.678;13.314;2023-03-25T07:08:53;5.30;;;0.60;;
68803;SDS011;55787;52.678;13.314;2023-03-25T07:11:22;4.60;;;0.63;;
68803;SDS011;55787;52.678;13.314;2023-03-25T07:13:52;5.63;;;0.70;;
68803;SDS011;55787;52.678;13.314;2023-03-25T07:16:20;6.97;;;1.17;;
68803;SDS011;55787;52.678;13.314;2023-03-25T07:18:48;3.63;;;0.50;;
68803;SDS011;55787;52.678;13.314;2023-03-25T07:21:16;5.93;;;0.60;;
68803;SDS011;55787;52.678;13.314;2023-03-25T07:23:43;3.95;;;0.63;;
68803;SDS011;55787;52.678;13.314;2023-03-25T07:26:10;5.15;;;0.70;;
68803;SDS011;55787;52.678;13.314;2023-03-25T07:28:38;4.10;;;0.50;;
68803;SDS011;55787;52.678;13.314;2023-03-25T07:31:09;5.28;;;0.70;;
68803;SDS011;55787;52.678;13.314;2023-03-25T07:33:37;4.25;;;0.60;;
68803;SDS011;55787;52.678;13.314;2023-03-25T07:36:05;5.40;;;0.63;;
68803;SDS011;55787;52.678;13.314;2023-03-25T07:38:33;4.93;;;0.98;;
68803;SDS011;55787;52.678;13.314;2023-03-25T07:41:03;4.43;;;0.80;;
68803;SDS011;55787;52.678;13.314;2023-03-25T07:43:31;4.50;;;0.68;;
68803;SDS011;55787;52.678;13.314;2023-03-25T07:45:58;4.45;;;0.73;;
68803;SDS011;55787;52.678;13.314;2023-03-25T07:48:25;5.88;;;0.80;;
68803;SDS011;55787;52.678;13.314;2023-03-25T07:50:51;3.78;;;0.50;;
68803;SDS011;55787;52.678;13.314;2023-03-25T07:53:18;5.28;;;0.55;;
68803;SDS011;55787;52.678;13.314;2023-03-25T07:55:45;3.88;;;0.50;;
68803;SDS011;55787;52.678;13.314;2023-03-25T07:58:12;4.57;;;0.60;;
68803;SDS011;55787;52.678;13.314;2023-03-25T08:00:39;4.05;;;0.50;;
68803;SDS011;55787;52.678;13.314;2023-03-25T08:03:05;4.70;;;0.65;;
68803;SDS011;55787;52.678;13.314;2023-03-25T08:05:32;5.18;;;0.55;;
68803;SDS011;55787;52.678;13.314;2023-03-25T08:07:58;4.90;;;0.50;;
68803;SDS011;55787;52.678;13.314;2023-03-25T08:10:25;4.80;;;0.55;;
68803;SDS011;55787;52.678;13.314;2023-03-25T08:12:52;4.38;;;0.57;;
68803;SDS011;55787;52.678;13.314;2023-03-25T08:15:19;6.93;;;0.88;;
68803;SDS011;55787;52.678;13.314;2023-03-25T08:17:50;4.75;;;0.57;;
68803;SDS011;55787;52.678;13.314;2023-03-25T08:20:19;5.55;;;0.63;;
68803;SDS011;55787;52.678;13.314;2023-03-25T08:22:46;7.63;;;0.80;;
68803;SDS011;55787;52.678;13.314;2023-03-25T08:25:13;5.82;;;0.73;;
68803;SDS011;55787;52.678;13.314;2023-03-25T08:27:40;3.85;;;0.40;;
68803;SDS011;55787;52.678;13.314;2023-03-25T08:30:06;5.40;;;0.50;;
68803;SDS011;55787;52.678;13.314;2023-03-25T08:32:35;4.50;;;0.30;;
68803;SDS011;55787;52.678;13.314;2023-03-25T08:35:04;5.50;;;0.57;;
68803;SDS011;55787;52.678;13.314;2023-03-25T08:37:31;5.38;;;0.50;;
68803;SDS011;55787;52.678;13.314;2023-03-25T08:40:03;7.03;;;0.70;;
68803;SDS011;55787;52.678;13.314;2023-03-25T08:42:33;8.25;;;1.98;;
68803;SDS011;55787;52.678;13.314;2023-03-25T08:45:01;4.38;;;0.50;;
68803;SDS011;55787;52.678;13.314;2023-03-25T08:47:29;5.43;;;0.70;;
68803;SDS011;55787;52.678;13.314;2023-03-25T08:49:56;6.10;;;0.50;;
68803;SDS011;55787;52.678;13.314;2023-03-25T08:52:23;4.88;;;0.32;;
68803;SDS011;55787;52.678;13.314;2023-03-25T08:54:49;5.75;;;0.40;;
68803;SDS011;55787;52.678;13.314;2023-03-25T08:57:16;4.63;;;0.50;;
68803;SDS011;55787;52.678;13.314;2023-03-25T08:59:42;4.32;;;0.40;;
68803;SDS011;55787;52.678;13.314;2023-03-25T09:02:10;6.32;;;0.60;;
68803;SDS011;55787;52.678;13.314;2023-03-25T09:04:37;5.45;;;0.80;;
68803;SDS011;55787;52.678;13.314;2023-03-25T09:07:07;7.47;;;0.80;;
68803;SDS011;55787;52.678;13.314;2023-03-25T09:09:38;5.75;;;0.70;;
68803;SDS011;55787;52.678;13.314;2023-03-25T09:12:05;7.78;;;0.80;;
68803;SDS011;55787;52.678;13.314;2023-03-25T09:14:32;4.32;;;0.50;;
68803;SDS011;55787;52.678;13.314;2023-03-25T09:16:59;5.85;;;0.60;;
68803;SDS011;55787;52.678;13.314;2023-03-25T09:19:26;4.50;;;0.45;;
68803;SDS011;55787;52.678;13.314;2023-03-25T09:21:53;4.80;;;0.50;;
68803;SDS011;55787;52.678;13.314;2023-03-25T09:24:19;4.63;;;0.50;;
68803;SDS011;55787;52.678;13.314;2023-03-25T09:26:47;4.80;;;0.50;;
68803;SDS011;55787;52.678;13.314;2023-03-25T09:29:14;6.00;;;0.63;;
68803;SDS011;55787;52.678;13.314;2023-03-25T09:31:41;4.60;;;0.68;;
68803;SDS011;55787;52.678;13.314;2023-03-25T09:34:08;4.25;;;0.70;;
68803;SDS011;55787;52.678;13.314;2023-03-25T09:36:35;4.47;;;0.80;;
68803;SDS011;55787;52.678;13.314;2023-03-25T09:39:02;4.57;;;0.90;;
68803;SDS011;55787;52.678;13.314;2023-03-25T09:44:27;5.15;;;1.02;;
68803;SDS011;55787;52.678;13.314;2023-03-25T09:46:58;4.32;;;0.60;;
68803;SDS011;55787;52.678;13.314;2023-03-25T09:49:35;4.55;;;0.70;;
68803;SDS011;55787;52.678;13.314;2023-03-25T09:52:05;4.82;;;0.60;;
68803;SDS011;55787;52.678;13.314;2023-03-25T09:54:37;5.82;;;0.50;;
68803;SDS011;55787;52.678;13.314;2023-03-25T09:57:11;3.75;;;0.50;;
68803;SDS011;55787;52.678;13.314;2023-03-25T09:59:44;5.35;;;0.60;;
68803;SDS011;55787;52.678;13.314;2023-03-25T10:11:07;5.22;;;0.85;;
68803;SDS011;55787;52.678;13.314;2023-03-25T10:16:32;4.70;;;0.63;;
68803;SDS011;55787;52.678;13.314;2023-03-25T10:21:57;4.97;;;0.70;;
68803;SDS011;55787;52.678;13.314;2023-03-25T10:24:30;4.00;;;0.50;;
68803;SDS011;55787;52.678;13.314;2023-03-25T10:30:30;4.45;;;0.60;;
68803;SDS011;55787;52.678;13.314;2023-03-25T10:32:56;5.03;;;0.80;;
68803;SDS011;55787;52.678;13.314;2023-03-25T10:35:30;3.97;;;0.50;;
68803;SDS011;55787;52.678;13.314;2023-03-25T10:38:01;5.18;;;0.75;;
68803;SDS011;55787;52.678;13.314;2023-03-25T10:40:42;4.00;;;0.60;;
68803;SDS011;55787;52.678;13.314;2023-03-25T10:43:28;4.28;;;0.80;;
68803;SDS011;55787;52.678;13.314;2023-03-25T10:46:04;4.53;;;0.60;;
68803;SDS011;55787;52.678;13.314;2023-03-25T10:48:34;4.35;;;0.50;;
68803;SDS011;55787;52.678;13.314;2023-03-25T10:54:01;4.32;;;0.70;;
68803;SDS011;55787;52.678;13.314;2023-03-25T10:57:04;4.72;;;1.02;;
68803;SDS011;55787;52.678;13.314;2023-03-25T10:59:30;4.72;;;0.50;;
68803;SDS011;55787;52.678;13.314;2023-03-25T11:02:18;5.18;;;0.60;;
68803;SDS011;55787;52.678;13.314;2023-03-25T11:04:46;3.58;;;0.55;;
68803;SDS011;55787;52.678;13.314;2023-03-25T11:07:24;4.47;;;0.55;;
68803;SDS011;55787;52.678;13.314;2023-03-25T11:10:09;4.47;;;0.50;;
68803;SDS011;55787;52.678;13.314;2023-03-25T11:12:40;5.38;;;0.50;;
68803;SDS011;55787;52.678;13.314;2023-03-25T11:15:14;4.60;;;0.57;;
68803;SDS011;55787;52.678;13.314;2023-03-25T11:17:44;5.15;;;0.60;;
68803;SDS011;55787;52.678;13.314;2023-03-25T11:20:16;4.03;;;0.50;;
68803;SDS011;55787;52.678;13.314;2023-03-25T11:22:49;3.58;;;0.40;;
68803;SDS011;55787;52.678;13.314;2023-03-25T11:25:39;3.70;;;0.40;;
68803;SDS011;55787;52.678;13.314;2023-03-25T11:28:11;4.57;;;0.40;;
68803;SDS011;55787;52.678;13.314;2023-03-25T11:33:37;6.93;;;0.60;;
68803;SDS011;55787;52.678;13.314;2023-03-25T11:38:38;4.55;;;0.70;;
68803;SDS011;55787;52.678;13.314;2023-03-25T11:41:05;5.70;;;0.82;;
68803;SDS011;55787;52.678;13.314;2023-03-25T11:43:34;3.47;;;0.57;;
68803;SDS011;55787;52.678;13.314;2023-03-25T11:46:06;5.25;;;1.05;;
68803;SDS011;55787;52.678;13.314;2023-03-25T11:48:38;5.10;;;0.70;;
68803;SDS011;55787;52.678;13.314;2023-03-25T11:51:08;4.85;;;0.70;;
68803;SDS011;55787;52.678;13.314;2023-03-25T11:53:45;4.72;;;0.75;;
68803;SDS011;55787;52.678;13.314;2023-03-25T11:56:19;4.38;;;0.57;;
68803;SDS011;55787;52.678;13.314;2023-03-25T11:58:48;4.53;;;0.60;;
68803;SDS011;55787;52.678;13.314;2023-03-25T12:03:51;4.57;;;0.60;;
68803;SDS011;55787;52.678;13.314;2023-03-25T12:06:19;4.10;;;0.43;;
68803;SDS011;55787;52.678;13.314;2023-03-25T12:08:51;5.20;;;0.55;;
68803;SDS011;55787;52.678;13.314;2023-03-25T12:19:50;5.20;;;0.60;;
68803;SDS011;55787;52.678;13.314;2023-03-25T12:25:13;4.72;;;0.60;;
68803;SDS011;55787;52.678;13.314;2023-03-25T12:27:56;6.28;;;0.60;;
68803;SDS011;55787;52.678;13.314;2023-03-25T12:34:32;5.63;;;0.70;;
68803;SDS011;55787;52.678;13.314;2023-03-25T12:39:45;5.20;;;0.50;;
68803;SDS011;55787;52.678;13.314;2023-03-25T12:58:49;3.22;;;0.40;;
68803;SDS011;55787;52.678;13.314;2023-03-25T13:01:28;5.40;;;0.55;;
68803;SDS011;55787;52.678;13.314;2023-03-25T13:07:02;4.28;;;0.40;;
68803;SDS011;55787;52.678;13.314;2023-03-25T13:09:38;3.90;;;0.47;;
68803;SDS011;55787;52.678;13.314;2023-03-25T13:13:11;4.20;;;0.30;;
68803;SDS011;55787;52.678;13.314;2023-03-25T13:15:34;4.47;;;0.45;;
68803;SDS011;55787;52.678;13.314;2023-03-25T13:20:57;3.35;;;0.40;;
68803;SDS011;55787;52.678;13.314;2023-03-25T13:23:25;4.55;;;0.40;;
68803;SDS011;55787;52.678;13.314;2023-03-25T13:28:39;4.70;;;0.50;;
68803;SDS011;55787;52.678;13.314;2023-03-25T13:31:21;4.32;;;0.60;;
68803;SDS011;55787;52.678;13.314;2023-03-25T13:33:55;5.03;;;0.68;;
68803;SDS011;55787;52.678;13.314;2023-03-25T13:36:30;3.78;;;0.40;;
68803;SDS011;55787;52.678;13.314;2023-03-25T13:39:04;4.43;;;0.30;;
68803;SDS011;55787;52.678;13.314;2023-03-25T13:41:39;2.67;;;0.30;;
68803;SDS011;55787;52.678;13.314;2023-03-25T13:46:46;3.30;;;0.30;;
68803;SDS011;55787;52.678;13.314;2023-03-25T13:52:19;3.88;;;0.40;;
68803;SDS011;55787;52.678;13.314;2023-03-25T13:54:54;2.85;;;0.30;;
68803;SDS011;55787;52.678;13.314;2023-03-25T13:57:33;4.85;;;0.40;;
68803;SDS011;55787;52.678;13.314;2023-03-25T14:12:05;3.35;;;0.45;;
68803;SDS011;55787;52.678;13.314;2023-03-25T14:14:41;3.97;;;0.50;;
68803;SDS011;55787;52.678;13.314;2023-03-25T14:17:12;4.35;;;0.40;;
68803;SDS011;55787;52.678;13.314;2023-03-25T14:19:51;4.72;;;0.60;;
68803;SDS011;55787;52.678;13.314;2023-03-25T14:22:21;4.20;;;0.45;;
68803;SDS011;55787;52.678;13.314;2023-03-25T14:24:49;4.63;;;0.50;;
68803;SDS011;55787;52.678;13.314;2023-03-25T14:29:58;4.90;;;0.50;;
68803;SDS011;55787;52.678;13.314;2023-03-25T14:32:29;3.75;;;0.50;;
68803;SDS011;55787;52.678;13.314;2023-03-25T14:43:31;3.28;;;0.35;;
68803;SDS011;55787;52.678;13.314;2023-03-25T14:48:42;4.57;;;0.43;;
68803;SDS011;55787;52.678;13.314;2023-03-25T14:53:52;5.90;;;0.60;;
68803;SDS011;55787;52.678;13.314;2023-03-25T14:59:19;4.43;;;0.60;;
68803;SDS011;55787;52.678;13.314;2023-03-25T15:01:49;4.35;;;0.60;;
68803;SDS011;55787;52.678;13.314;2023-03-25T15:06:44;5.57;;;0.70;;
68803;SDS011;55787;52.678;13.314;2023-03-25T15:09:14;4.95;;;0.65;;
68803;SDS011;55787;52.678;13.314;2023-03-25T15:11:43;5.80;;;0.70;;
68803;SDS011;55787;52.678;13.314;2023-03-25T15:14:18;4.47;;;0.60;;
68803;SDS011;55787;52.678;13.314;2023-03-25T15:19:17;3.60;;;0.50;;
68803;SDS011;55787;52.678;13.314;2023-03-25T15:24:32;4.38;;;0.40;;
68803;SDS011;55787;52.678;13.314;2023-03-25T15:30:30;2.78;;;0.40;;
68803;SDS011;55787;52.678;13.314;2023-03-25T15:56:28;5.90;;;0.50;;
68803;SDS011;55787;52.678;13.314;2023-03-25T15:59:13;6.40;;;0.93;;
68803;SDS011;55787;52.678;13.314;2023-03-25T16:01:55;4.63;;;0.70;;
68803;SDS011;55787;52.678;13.314;2023-03-25T16:07:14;5.20;;;0.85;;
68803;SDS011;55787;52.678;13.314;2023-03-25T16:09:44;4.95;;;0.82;;
68803;SDS011;55787;52.678;13.314;2023-03-25T16:12:17;5.22;;;0.98;;
68803;SDS011;55787;52.678;13.314;2023-03-25T16:14:46;6.85;;;1.00;;
68803;SDS011;55787;52.678;13.314;2023-03-25T16:17:13;6.00;;;0.63;;
68803;SDS011;55787;52.678;13.314;2023-03-25T16:19:47;6.63;;;0.90;;
68803;SDS011;55787;52.678;13.314;2023-03-25T16:24:48;4.32;;;0.52;;
68803;SDS011;55787;52.678;13.314;2023-03-25T16:27:29;7.00;;;0.95;;
68803;SDS011;55787;52.678;13.314;2023-03-25T16:29:59;6.72;;;1.38;;
68803;SDS011;55787;52.678;13.314;2023-03-25T16:32:32;7.28;;;1.23;;
68803;SDS011;55787;52.678;13.314;2023-03-25T16:35:01;13.27;;;3.63;;
68803;SDS011;55787;52.678;13.314;2023-03-25T16:37:29;9.45;;;2.10;;
68803;SDS011;55787;52.678;13.314;2023-03-25T16:39:58;4.70;;;0.60;;
68803;SDS011;55787;52.678;13.314;2023-03-25T16:44:52;5.63;;;0.60;;
68803;SDS011;55787;52.678;13.314;2023-03-25T16:47:20;9.45;;;2.60;;
68803;SDS011;55787;52.678;13.314;2023-03-25T16:49:48;5.47;;;0.80;;
68803;SDS011;55787;52.678;13.314;2023-03-25T16:52:18;8.25;;;2.20;;
68803;SDS011;55787;52.678;13.314;2023-03-25T16:57:18;7.55;;;1.75;;
68803;SDS011;55787;52.678;13.314;2023-03-25T16:59:49;7.43;;;1.90;;
68803;SDS011;55787;52.678;13.314;2023-03-25T17:02:26;6.95;;;1.15;;
68803;SDS011;55787;52.678;13.314;2023-03-25T17:05:13;7.47;;;1.77;;
68803;SDS011;55787;52.678;13.314;2023-03-25T17:07:41;5.45;;;1.13;;
68803;SDS011;55787;52.678;13.314;2023-03-25T17:10:27;6.90;;;1.65;;
68803;SDS011;55787;52.678;13.314;2023-03-25T17:15:30;6.10;;;0.75;;
68803;SDS011;55787;52.678;13.314;2023-03-25T17:18:00;6.45;;;1.38;;
68803;SDS011;55787;52.678;13.314;2023-03-25T17:20:30;5.43;;;0.80;;
68803;SDS011;55787;52.678;13.314;2023-03-25T17:23:03;5.53;;;0.88;;
68803;SDS011;55787;52.678;13.314;2023-03-25T17:30:58;6.15;;;1.00;;
68803;SDS011;55787;52.678;13.314;2023-03-25T17:33:35;6.03;;;1.10;;
68803;SDS011;55787;52.678;13.314;2023-03-25T17:36:07;7.70;;;1.13;;
68803;SDS011;55787;52.678;13.314;2023-03-25T17:38:43;8.05;;;1.30;;
68803;SDS011;55787;52.678;13.314;2023-03-25T17:41:13;8.07;;;1.83;;
68803;SDS011;55787;52.678;13.314;2023-03-25T17:43:44;10.73;;;3.40;;
68803;SDS011;55787;52.678;13.314;2023-03-25T17:46:20;12.20;;;3.55;;
68803;SDS011;55787;52.678;13.314;2023-03-25T17:48:50;9.27;;;3.10;;
68803;SDS011;55787;52.678;13.314;2023-03-25T17:51:18;9.20;;;2.08;;
68803;SDS011;55787;52.678;13.314;2023-03-25T17:53:47;7.93;;;1.85;;
68803;SDS011;55787;52.678;13.314;2023-03-25T17:56:15;9.27;;;2.10;;
68803;SDS011;55787;52.678;13.314;2023-03-25T17:58:46;10.35;;;4.60;;
68803;SDS011;55787;52.678;13.314;2023-03-25T18:01:13;13.25;;;6.70;;
68803;SDS011;55787;52.678;13.314;2023-03-25T18:03:39;9.85;;;4.93;;
68803;SDS011;55787;52.678;13.314;2023-03-25T18:06:06;21.20;;;14.77;;
68803;SDS011;55787;52.678;13.314;2023-03-25T18:08:33;15.05;;;8.30;;
68803;SDS011;55787;52.678;13.314;2023-03-25T18:11:00;11.43;;;5.05;;
68803;SDS011;55787;52.678;13.314;2023-03-25T18:13:26;9.85;;;2.70;;
68803;SDS011;55787;52.678;13.314;2023-03-25T18:15:53;9.88;;;3.50;;
68803;SDS011;55787;52.678;13.314;2023-03-25T18:18:22;8.50;;;2.58;;
68803;SDS011;55787;52.678;13.314;2023-03-25T18:20:52;10.25;;;4.28;;